Flight Track Log - Related Links

Times and Time Zones

All times are in EDT time to prevent confusion due to time zone crossing. See the UPS2332 flight status page for this flight to view local times or setup timezone preferences in your user account.

Time Position Orientation Groundspeed Altitude Reporting Facility
EDT Latitude Longitude Course Direction KTS MPH feet Rate Location/Type
Wed 04:44:47 PM 38.2504 -85.7890 329° Northwest 256 295 4,400  Level FlightAware ADS-B
Wed 04:45:05 PM 38.2664 -85.8028 314° West 261 300 5,200 2,786 Climbing FlightAware ADS-B
Wed 04:45:15 PM 38.2727 -85.8144 297° West 265 305 5,700 3,692 Climbing FlightAware ADS-B
Wed 04:45:31 PM 38.2763 -85.8341 272° West 269 310 6,800 4,000 Climbing FlightAware ADS-B
Wed 04:45:54 PM 38.2732 -85.8784 252° West 277 319 8,300 3,600 Climbing FlightAware ADS-B
Wed 04:46:06 PM 38.2691 -85.8885 231° Southwest 284 327 8,900 2,857 Climbing FlightAware ADS-B
Wed 04:46:15 PM 38.2577 -85.9041 215° Southwest 286 329 9,300 1,862 Climbing FlightAware ADS-B
Wed 04:46:35 PM 38.2350 -85.9250 217° Southwest 298 343 9,800 900 Climbing FlightAware ADS-B
Wed 04:46:55 PM 38.2117 -85.9469 216° Southwest 296 341 9,900 214 Climbing FlightAware ADS-B
Wed 04:47:31 PM 38.1720 -85.9831 216° Southwest 295 339 10,000 1,378 Climbing FlightAware ADS-B
Wed 04:48:09 PM 38.1308 -86.0213 216° Southwest 318 366 11,600 2,640 Climbing FlightAware ADS-B
Wed 04:49:11 PM 38.0383 -86.0740 182° South 376 433 14,400 2,400 Climbing FlightAware ADS-B
Wed 04:50:14 PM 37.9220 -86.0473 168° South 434 499 16,600 2,419 Climbing FlightAware ADS-B
Wed 04:51:15 PM 37.8025 -86.0165 169° South 457 526 19,400 2,323 Climbing FlightAware ADS-B
Wed 04:52:18 PM 37.6705 -85.9838 169° South 471 542 21,400 2,154 Climbing FlightAware ADS-B
Wed 04:53:12 PM 37.5440 -85.9528 169° South 491 565 23,600 2,224 Climbing FlightAware ADS-B
Wed 04:54:14 PM 37.4032 -85.9184 169° South 508 585 25,700 2,244 Climbing FlightAware ADS-B
Wed 04:55:15 PM 37.2662 -85.8848 169° South 510 587 28,200 2,638 Climbing FlightAware ADS-B
Wed 04:56:10 PM 37.1786 -85.8633 169° South 497 572 30,800 1,983 Climbing FlightAware ADS-B
Wed 04:57:13 PM 36.9996 -85.8199 169° South 508 585 32,100 818 Climbing FlightAware ADS-B
Wed 05:01:18 PM 36.4390 -85.6847 169° South 497 572 35,000 621 Climbing FlightAware ADS-B (KMDQ)
Wed 05:01:53 PM 36.3671 -85.6674 169° South 494 568 35,000  Level FlightAware ADS-B (KMDQ)
Wed 05:02:39 PM 36.2560 -85.6410 169° South 494 568 35,000  Level FlightAware ADS-B (KMDQ)
Wed 05:03:16 PM 36.1702 -85.6207 169° South 493 567 35,000  Level FlightAware ADS-B (KMDQ)
Wed 05:03:53 PM 36.0859 -85.6007 169° South 492 566 35,000  Level FlightAware ADS-B (KMDQ)
Wed 05:04:37 PM 35.9908 -85.5781 169° South 491 565 35,000  Level FlightAware ADS-B (KMDQ)
Wed 05:05:19 PM 35.9036 -85.5575 169° South 491 565 35,000  Level FlightAware ADS-B (KMDQ)
Wed 05:05:59 PM 35.8150 -85.5367 169° South 490 564 35,000  Level FlightAware ADS-B (KMDQ)
Wed 05:06:37 PM 35.7212 -85.5145 169° South 489 563 35,000  Level FlightAware ADS-B (KMDQ)
Wed 05:07:17 PM 35.6334 -85.4939 169° South 489 563 35,000  Level FlightAware ADS-B (KMDQ)
Wed 05:07:59 PM 35.5390 -85.4719 169° South 489 563 35,000  Level FlightAware ADS-B (KMDQ)
Wed 05:08:39 PM 35.4501 -85.4511 169° South 489 563 35,000  Level FlightAware ADS-B (KMDQ)
Wed 05:09:10 PM 35.3861 -85.4361 169° South 488 562 35,000  Level FlightAware ADS-B (KMDQ)
Wed 05:09:59 PM 35.2739 -85.4101 169° South 486 559 35,000  Level FlightAware ADS-B (KMDQ)
Wed 05:10:39 PM 35.1846 -85.3894 169° South 486 559 35,000  Level FlightAware ADS-B (KMDQ)
Wed 05:11:18 PM 35.1023 -85.3704 169° South 486 559 35,000  Level FlightAware ADS-B (KMDQ)
Wed 05:11:59 PM 35.0082 -85.3486 169° South 486 559 35,000  Level FlightAware ADS-B (KMDQ)
Wed 05:12:39 PM 34.9194 -85.3282 169° South 485 558 35,000  Level FlightAware ADS-B (KMDQ)
Wed 05:13:19 PM 34.8326 -85.3082 169° South 485 558 35,000  Level FlightAware ADS-B (KMDQ)
Wed 05:14:22 PM 34.7167 -85.2817 169° South 484 557 35,000  Level Memphis Center
Wed 05:15:24 PM 34.5853 -85.2517 169° South 483 556 35,000  Level Memphis Center
Wed 05:16:26 PM 34.4281 -85.2156 169° South 481 554 35,000  Level Memphis Center
Wed 05:17:22 PM 34.3086 -85.1906 170° South 485 558 35,000  Level Atlanta Center
Wed 05:18:22 PM 34.1772 -85.1636 170° South 480 552 35,000  Level Atlanta Center
Wed 05:19:22 PM 34.0483 -85.1344 169° South 480 552 35,000  Level Atlanta Center
Wed 05:20:22 PM 33.9275 -85.1053 169° South 485 558 35,000  Level Atlanta Center
Wed 05:21:22 PM 33.7961 -85.0786 170° South 485 558 35,000  Level Atlanta Center
Wed 05:22:22 PM 33.6628 -85.0497 170° South 485 558 35,000  Level Atlanta Center
Wed 05:23:22 PM 33.5317 -85.0183 169° South 485 558 35,000  Level Atlanta Center
Wed 05:24:22 PM 33.3983 -84.9869 169° South 485 558 35,000  Level Atlanta Center
Wed 05:25:22 PM 33.2689 -84.9606 170° South 485 558 35,000  Level Atlanta Center
Wed 05:26:22 PM 33.1378 -84.9319 170° South 485 558 35,000  Level Atlanta Center
Wed 05:27:22 PM 33.0106 -84.9008 168° South 485 558 35,000  Level Atlanta Center
Wed 05:28:22 PM 32.8792 -84.8750 171° South 485 558 35,000  Level Atlanta Center
Wed 05:29:22 PM 32.7356 -84.8339 166° South 490 564 35,000  Level Atlanta Center
Wed 05:30:22 PM 32.6061 -84.8131 172° South 484 557 35,000  Level Atlanta Center
Wed 05:31:22 PM 32.4750 -84.7850 170° South 484 557 35,000  Level Atlanta Center
Wed 05:32:22 PM 32.3456 -84.7567 170° South 484 557 35,000  Level Atlanta Center
Wed 05:33:22 PM 32.2144 -84.7286 170° South 484 557 35,000  Level Atlanta Center
Wed 05:34:22 PM 32.0850 -84.7008 170° South 484 557 35,000  Level Atlanta Center
Wed 05:40:59 PM 31.2350 -84.4499 155° Southeast 483 556 35,000  Level FlightAware ADS-B (KONZ)
Wed 05:41:31 PM 31.1698 -84.4142 155° Southeast 484 557 35,000  Level FlightAware ADS-B (KONZ)
Wed 05:42:01 PM 31.1099 -84.3816 155° Southeast 479 551 35,000  Level FlightAware ADS-B (KONZ)
Wed 05:42:56 PM 31.0016 -84.3235 155° Southeast 465 535 35,000  Level FlightAware ADS-B (KONZ)
Wed 05:44:29 PM 30.8312 -84.2326 155° Southeast 463 533 35,000  Level FlightAware ADS-B (KONZ)
Wed 05:45:09 PM 30.7474 -84.1879 155° Southeast 463 533 35,000  Level FlightAware ADS-B (KONZ)
Wed 05:45:40 PM 30.6955 -84.1602 155° Southeast 464 534 35,000  Level FlightAware ADS-B (KONZ)
Wed 05:46:11 PM 30.6197 -84.1199 155° Southeast 472 543 35,000  Level FlightAware ADS-B (KONZ)
Wed 05:46:41 PM 30.5733 -84.0953 155° Southeast 477 549 35,000  Level FlightAware ADS-B (KONZ)
Wed 05:47:12 PM 30.4991 -84.0559 155° Southeast 482 555 35,000  Level FlightAware ADS-B (KONZ)
Wed 05:47:51 PM 30.4179 -84.0128 155° Southeast 485 558 35,000  Level FlightAware ADS-B (KONZ)
Wed 05:48:29 PM 30.3409 -83.9722 155° Southeast 484 557 35,000  Level FlightAware ADS-B (KONZ)
Wed 05:49:01 PM 30.2822 -83.9410 155° Southeast 483 556 35,000  Level FlightAware ADS-B (KONZ)
Wed 05:49:39 PM 30.1994 -83.8975 155° Southeast 482 555 35,000  Level FlightAware ADS-B (KONZ)
Wed 05:50:18 PM 30.1286 -83.8602 156° South 482 555 35,000  Level FlightAware ADS-B (KONZ)
Wed 05:51:09 PM 30.0253 -83.8067 156° South 482 555 35,000  Level Jacksonville Center
Wed 05:52:09 PM 29.9025 -83.7431 156° South 482 555 35,000  Level Jacksonville Center
Wed 05:53:09 PM 29.7797 -83.6800 156° South 482 555 35,000  Level Jacksonville Center
Wed 05:54:09 PM 29.6547 -83.6167 156° South 482 555 35,000  Level Jacksonville Center
Wed 05:55:09 PM 29.5319 -83.5514 155° Southeast 482 555 35,000  Level Jacksonville Center
Wed 05:56:09 PM 29.4069 -83.4861 156° South 482 555 35,000  Level Jacksonville Center
Wed 05:57:09 PM 29.2842 -83.4211 155° Southeast 482 555 35,000  Level Jacksonville Center
Wed 05:58:09 PM 29.1592 -83.3586 156° South 482 555 35,000 -50 Level Jacksonville Center
Wed 05:59:09 PM 29.0383 -83.2964 156° South 482 555 34,900  Descending Jacksonville Center
Wed 06:00:09 PM 28.9175 -83.2342 156° South 482 555 35,000 50 Climbing Jacksonville Center
Wed 06:01:09 PM 28.7986 -83.1722 155° Southeast 477 549 35,000  Level Jacksonville Center
Wed 06:02:09 PM 28.6756 -83.1103 156° South 477 549 35,000  Level Jacksonville Center
Wed 06:06:54 PM 28.0936 -82.8137 155° Southeast 483 556 35,000  Level FlightAware ADS-B (KEYW)
Wed 06:07:03 PM 28.0815 -82.8076 155° Southeast 483 556 35,000  Level FlightAware ADS-B (KEYW)
Wed 06:09:28 PM 27.7726 -82.6745 161° South 485 558 35,000  Level FlightAware ADS-B (KEYW)
Wed 06:09:48 PM 27.7276 -82.6576 162° South 485 558 35,000  Level FlightAware ADS-B
Wed 06:09:59 PM 27.7137 -82.6524 161° South 484 557 35,000  Level FlightAware ADS-B (KEYW)
Wed 06:10:28 PM 27.6405 -82.6252 162° South 485 558 35,000  Level FlightAware ADS-B
Wed 06:10:40 PM 27.6183 -82.6169 161° South 486 559 35,000  Level FlightAware ADS-B (KEYW)
Wed 06:11:03 PM 27.5690 -82.5985 162° South 487 560 35,000  Level FlightAware ADS-B
Wed 06:11:25 PM 27.5218 -82.5809 161° South 488 562 35,000  Level FlightAware ADS-B (KEYW)
Wed 06:12:10 PM 27.4300 -82.5466 161° South 490 564 35,000 -67 Level FlightAware ADS-B (KEYW)
Wed 06:12:55 PM 27.3286 -82.5087 161° South 489 563 34,900 -514 Descending FlightAware ADS-B (KEYW)
Wed 06:13:55 PM 27.1987 -82.4603 161° South 483 556 34,100 -955 Descending FlightAware ADS-B (KEYW)
Wed 06:14:23 PM 27.1389 -82.4382 161° South 485 558 33,500 -1,300 Descending FlightAware ADS-B (KEYW)
Wed 06:14:55 PM 27.0700 -82.4125 161° South 487 560 32,800 -1,742 Descending FlightAware ADS-B (KEYW)
Wed 06:15:25 PM 27.0061 -82.3891 161° South 489 563 31,700 -1,700 Descending FlightAware ADS-B (KEYW)
Wed 06:15:55 PM 26.9418 -82.3654 161° South 479 551 31,100 -1,313 Descending FlightAware ADS-B (KEYW)
Wed 06:15:57 PM 26.9362 -82.3633 162° South 479 551 31,000 -2,684 Descending FlightAware ADS-B
Wed 06:16:33 PM 26.8711 -82.3389 162° South 486 559 29,400 -2,700 Descending FlightAware ADS-B
Wed 06:16:37 PM 26.8540 -82.3326 162° South 484 557 29,200 -1,811 Descending FlightAware ADS-B (KEYW)
Wed 06:17:26 PM 26.7526 -82.2954 161° South 471 542 27,800 -2,000 Descending FlightAware ADS-B (KEYW)
Wed 06:18:19 PM 26.6491 -82.2572 161° South 468 539 25,800 -2,400 Descending FlightAware ADS-B (KEYW)
Wed 06:18:51 PM 26.5791 -82.2222 147° Southeast 475 547 24,400 -1,672 Descending FlightAware ADS-B (KEYW)
Wed 06:19:20 PM 26.5240 -82.1839 148° Southeast 465 535 24,100 -480 Descending FlightAware ADS-B (KEYW)
Wed 06:19:41 PM 26.5134 -82.1766 148° Southeast 466 536 24,000 -200 Descending FlightAware ADS-B
Wed 06:19:50 PM 26.4689 -82.1457 148° Southeast 468 539 24,000  Level FlightAware ADS-B (KEYW)
Wed 06:20:22 PM 26.4116 -82.1059 147° Southeast 472 543 24,000  Level FlightAware ADS-B (KEYW)
Wed 06:20:56 PM 26.3516 -82.0637 147° Southeast 445 512 24,000  Level FlightAware ADS-B (KEYW)
Wed 06:21:42 PM 26.2761 -82.0029 144° Southeast 436 502 24,000  Level FlightAware ADS-B (KEYW)
Wed 06:22:26 PM 26.2046 -81.9362 129° Southeast 444 511 24,000 -109 Level FlightAware ADS-B (KEYW)
Wed 06:22:37 PM 26.1914 -81.9154 126° Southeast 447 514 23,900 -1,375 Descending FlightAware ADS-B
Wed 06:23:14 PM 26.1628 -81.8374 109° East 463 533 22,900 -1,636 Descending FlightAware ADS-B (KEYW)
Wed 06:24:27 PM 26.1156 -81.6853 109° East 460 529 20,900 -1,738 Descending Miami Center
Wed 06:30:36 PM 25.7210 -81.2458 116° Southeast 346 398 10,100 -1,749 Descending FlightAware ADS-B (KEYW)
Wed 06:30:41 PM 25.7180 -81.2374 109° East 345 397 10,000 -60 Descending FlightAware ADS-B (KEYW)
Wed 06:32:16 PM 25.7703 -81.1114 47° Northeast 275 316 10,000 -295 Level FlightAware ADS-B (KEYW)
Wed 06:36:47 PM 25.8930 -80.7915 95° East 239 275 8,200 -466 Descending FlightAware ADS-B (KEYW)
Wed 06:37:12 PM 25.8903 -80.7607 95° East 232 267 7,700 -1,333 Descending FlightAware ADS-B (KEYW)
Wed 06:37:50 PM 25.8869 -80.7197 95° East 231 266 6,800 -1,500 Descending Miami Center
Wed 06:38:20 PM 25.8814 -80.6836 100° East 228 262 6,000 -1,377 Descending Miami Center
Wed 06:38:51 PM 25.8708 -80.6531 111° Southeast 225 259 5,400 -1,082 Descending Miami Center
Wed 06:39:21 PM 25.8561 -80.6214 117° Southeast 222 255 4,900 -871 Descending Miami Center
Wed 06:39:53 PM 25.8456 -80.5900 110° East 223 257 4,500 -787 Descending Miami Center
Wed 06:40:22 PM 25.8328 -80.5617 117° Southeast 197 227 4,100 -885 Descending Miami Center
Wed 06:40:54 PM 25.8222 -80.5356 114° Southeast 198 228 3,600 -885 Descending Miami Center
Wed 06:41:23 PM 25.8092 -80.5067 117° Southeast 198 228 3,200 -677 Descending Miami Center
Wed 06:41:56 PM 25.8006 -80.4775 108° East 198 228 2,900 -689 Descending Miami Center
Wed 06:42:24 PM 25.7967 -80.4431 97° East 208 239 2,500 -871 Descending Miami Center
Wed 06:42:58 PM 25.7978 -80.4147 87° East 203 234 2,000 -1,082 Descending Miami Center
Wed 06:43:25 PM 25.7983 -80.3808 89° East 194 223 1,400 -968 Descending Miami Center
Wed 06:44:00 PM 25.8014 -80.3564 82° East 191 220 1,000 -873 Descending Miami Center
Wed 06:44:20 PM 25.8014 -80.3347 90° East 147 169 600 -885 Descending Miami Center
Wed 06:45:01 PM 25.8025 -80.3122 87° East 149 171 100 -732 Descending Miami Center
Wed 06:47:00 PM 25.7954 -80.2901 24° Northeast  Level Estimated

Login

Don't have an account? Register now (free) for customized features, flight alerts, and more!